createdAt,value
2017-06-25T00:00:11.508Z,0
2017-06-25T00:00:37.636Z,0
2017-06-25T00:01:03.728Z,0
2017-06-25T00:01:29.831Z,0
2017-06-25T00:01:55.936Z,0
2017-06-25T00:02:22.021Z,0
2017-06-25T00:02:48.122Z,0
2017-06-25T00:03:14.228Z,0
2017-06-25T00:03:40.319Z,0
2017-06-25T00:04:06.421Z,0
2017-06-25T00:04:32.512Z,0
2017-06-25T00:04:58.614Z,0
2017-06-25T00:05:24.721Z,0
2017-06-25T00:05:50.860Z,0
2017-06-25T00:06:16.984Z,0
2017-06-25T00:06:43.090Z,0
2017-06-25T00:07:09.207Z,0
2017-06-25T00:07:35.303Z,0
2017-06-25T00:08:01.410Z,0
2017-06-25T00:08:27.531Z,0
2017-06-25T00:08:53.645Z,0
2017-06-25T00:09:19.776Z,0
2017-06-25T00:09:45.875Z,0
2017-06-25T00:10:11.980Z,0
2017-06-25T00:10:38.092Z,0
2017-06-25T00:11:04.191Z,0
2017-06-25T00:11:30.296Z,0
2017-06-25T00:11:56.392Z,0
2017-06-25T00:12:22.483Z,0
2017-06-25T00:12:48.591Z,0
2017-06-25T00:13:14.689Z,0
2017-06-25T00:13:40.777Z,0
2017-06-25T00:14:06.882Z,0
2017-06-25T00:14:32.981Z,0
2017-06-25T00:14:59.080Z,0
2017-06-25T00:15:25.228Z,0
2017-06-25T00:15:51.320Z,0
2017-06-25T00:16:17.458Z,0
2017-06-25T00:16:43.560Z,0
2017-06-25T00:17:09.672Z,0
2017-06-25T00:17:35.778Z,0
2017-06-25T00:18:01.879Z,0
2017-06-25T00:18:27.990Z,0
2017-06-25T00:18:54.116Z,0
2017-06-25T00:19:20.225Z,0
2017-06-25T00:19:46.315Z,0
2017-06-25T00:20:12.415Z,0
2017-06-25T00:20:38.509Z,0
2017-06-25T00:21:04.616Z,0
2017-06-25T00:21:30.717Z,0
2017-06-25T00:21:56.809Z,0
2017-06-25T00:22:22.909Z,0
2017-06-25T00:22:49.069Z,0
2017-06-25T00:23:15.157Z,0
2017-06-25T00:23:41.257Z,0
2017-06-25T00:24:07.391Z,0
2017-06-25T00:24:33.480Z,0
2017-06-25T00:24:59.573Z,0
2017-06-25T00:25:25.680Z,0
2017-06-25T00:25:51.774Z,0
2017-06-25T00:26:17.907Z,0
2017-06-25T00:26:43.995Z,0
2017-06-25T00:27:10.097Z,0
2017-06-25T00:27:36.202Z,0
2017-06-25T00:28:02.293Z,0
2017-06-25T00:28:28.390Z,0
2017-06-25T00:28:54.496Z,0
2017-06-25T00:29:20.589Z,0
2017-06-25T00:29:46.677Z,0
2017-06-25T00:30:12.785Z,0
2017-06-25T00:30:38.880Z,0
2017-06-25T00:31:04.970Z,0
2017-06-25T00:31:31.074Z,0
2017-06-25T00:31:57.202Z,0
2017-06-25T00:32:23.294Z,0
2017-06-25T00:32:49.417Z,0
2017-06-25T00:33:15.524Z,0
2017-06-25T00:33:41.611Z,0
2017-06-25T00:34:07.764Z,0
2017-06-25T00:34:33.871Z,0
2017-06-25T00:34:59.961Z,0
2017-06-25T00:35:26.080Z,0
2017-06-25T00:35:52.186Z,0
2017-06-25T00:36:18.279Z,0
2017-06-25T00:36:44.366Z,0
2017-06-25T00:37:10.496Z,0
2017-06-25T00:37:36.597Z,0
2017-06-25T00:38:02.702Z,0
2017-06-25T00:38:28.794Z,0
2017-06-25T00:38:54.893Z,0
2017-06-25T00:39:21.027Z,0
2017-06-25T00:39:47.120Z,0
2017-06-25T00:40:13.208Z,0
2017-06-25T00:40:39.317Z,0
2017-06-25T00:41:05.439Z,0
2017-06-25T00:41:31.554Z,0
2017-06-25T00:41:57.686Z,0
2017-06-25T00:42:23.815Z,0
2017-06-25T00:42:49.918Z,0
2017-06-25T00:43:16.007Z,0
2017-06-25T00:43:42.098Z,0
2017-06-25T00:44:08.207Z,0
2017-06-25T00:44:34.307Z,0
2017-06-25T00:45:00.398Z,0
2017-06-25T00:45:26.531Z,0
2017-06-25T00:45:52.634Z,0
2017-06-25T00:46:18.748Z,0
2017-06-25T00:46:44.874Z,0
2017-06-25T00:47:11.007Z,0
2017-06-25T00:47:37.095Z,0
2017-06-25T00:48:03.193Z,0
2017-06-25T00:48:29.288Z,0
2017-06-25T00:48:55.394Z,0
2017-06-25T00:49:21.521Z,0
2017-06-25T00:49:47.614Z,0
2017-06-25T00:50:13.716Z,0
2017-06-25T00:50:39.823Z,0
2017-06-25T00:51:05.935Z,0
2017-06-25T00:51:32.033Z,0
2017-06-25T00:51:58.140Z,0
2017-06-25T00:52:24.233Z,0
2017-06-25T00:52:50.331Z,0
2017-06-25T00:53:16.442Z,0
2017-06-25T00:53:42.557Z,0
2017-06-25T00:54:08.648Z,0
2017-06-25T00:54:34.756Z,0
2017-06-25T00:55:00.854Z,0
2017-06-25T00:55:26.945Z,0
2017-06-25T00:55:53.047Z,0
2017-06-25T00:56:19.148Z,0
2017-06-25T00:56:45.239Z,0
2017-06-25T00:57:11.342Z,0
2017-06-25T00:57:37.447Z,0
2017-06-25T00:58:03.533Z,0
2017-06-25T00:58:29.633Z,0
2017-06-25T00:58:55.740Z,0
2017-06-25T00:59:21.831Z,0
2017-06-25T00:59:47.961Z,0
2017-06-25T01:00:14.054Z,0
2017-06-25T01:00:40.156Z,0
2017-06-25T01:01:06.263Z,0
2017-06-25T01:01:32.351Z,0
2017-06-25T01:01:58.451Z,0
2017-06-25T01:02:24.559Z,0
2017-06-25T01:02:50.678Z,0
2017-06-25T01:03:16.774Z,0
2017-06-25T01:03:42.880Z,0
2017-06-25T01:04:08.998Z,0
2017-06-25T01:04:35.088Z,0
2017-06-25T01:05:01.218Z,0
2017-06-25T01:05:27.317Z,0
2017-06-25T01:05:53.453Z,0
2017-06-25T01:06:19.569Z,0
2017-06-25T01:06:45.668Z,0
2017-06-25T01:07:11.774Z,0
2017-06-25T01:07:37.894Z,0
2017-06-25T01:08:04.026Z,0
2017-06-25T01:08:30.169Z,0
2017-06-25T01:08:56.265Z,0
2017-06-25T01:09:22.357Z,0
2017-06-25T01:09:48.488Z,0
2017-06-25T01:10:14.618Z,0
2017-06-25T01:10:40.720Z,0
2017-06-25T01:11:06.815Z,0
2017-06-25T01:11:32.930Z,0
2017-06-25T01:11:59.039Z,0
2017-06-25T01:12:25.164Z,0
2017-06-25T01:12:51.255Z,0
2017-06-25T01:13:17.361Z,0
2017-06-25T01:13:43.461Z,0
2017-06-25T01:14:09.553Z,0
2017-06-25T01:14:35.655Z,0
2017-06-25T01:15:01.762Z,0
2017-06-25T01:15:27.850Z,0
2017-06-25T01:15:53.947Z,0
2017-06-25T01:16:20.081Z,0
2017-06-25T01:16:46.174Z,0
2017-06-25T01:17:12.296Z,0
2017-06-25T01:17:38.403Z,0
2017-06-25T01:18:04.494Z,0
2017-06-25T01:18:30.609Z,0
2017-06-25T01:18:56.717Z,0
2017-06-25T01:19:22.817Z,0
2017-06-25T01:19:48.906Z,0
2017-06-25T01:20:15.036Z,0
2017-06-25T01:20:41.162Z,0
2017-06-25T01:21:07.277Z,0
2017-06-25T01:21:33.381Z,0
2017-06-25T01:21:59.470Z,0
2017-06-25T01:22:25.579Z,0
2017-06-25T01:22:51.675Z,0
2017-06-25T01:23:17.790Z,0
2017-06-25T01:23:43.944Z,0
2017-06-25T01:24:10.045Z,0
2017-06-25T01:24:36.160Z,0
2017-06-25T01:25:02.263Z,0
2017-06-25T01:25:28.398Z,0
2017-06-25T01:25:54.508Z,0
2017-06-25T01:26:20.606Z,0
2017-06-25T01:26:46.713Z,0
2017-06-25T01:27:12.805Z,0
2017-06-25T01:27:38.907Z,0
2017-06-25T01:28:05.024Z,0
2017-06-25T01:28:31.127Z,0
2017-06-25T01:28:57.259Z,0
2017-06-25T01:29:23.345Z,0
2017-06-25T01:29:49.445Z,0
2017-06-25T01:30:15.553Z,0
2017-06-25T01:30:41.698Z,0
2017-06-25T01:31:07.793Z,0
2017-06-25T01:31:33.900Z,0
2017-06-25T01:31:59.990Z,0
2017-06-25T01:32:26.081Z,0
2017-06-25T01:32:52.210Z,0
2017-06-25T01:33:18.336Z,0
2017-06-25T01:33:44.442Z,0
2017-06-25T01:34:10.557Z,0
2017-06-25T01:34:36.678Z,0
2017-06-25T01:35:02.784Z,0
2017-06-25T01:35:28.908Z,0
2017-06-25T01:35:54.997Z,0
2017-06-25T01:36:21.108Z,0
2017-06-25T01:36:47.233Z,0
2017-06-25T01:37:13.350Z,0
2017-06-25T01:37:39.453Z,0
2017-06-25T01:38:05.552Z,0
2017-06-25T01:38:31.652Z,0
2017-06-25T01:38:57.772Z,0
2017-06-25T01:39:23.887Z,0
2017-06-25T01:39:49.996Z,0
2017-06-25T01:40:16.121Z,0
2017-06-25T01:40:42.210Z,0
2017-06-25T01:41:08.314Z,0
2017-06-25T01:41:34.414Z,0
2017-06-25T01:42:00.505Z,0
2017-06-25T01:42:26.633Z,0
2017-06-25T01:42:52.766Z,0
2017-06-25T01:43:18.856Z,0
2017-06-25T01:43:44.955Z,0
2017-06-25T01:44:11.076Z,0
2017-06-25T01:44:37.209Z,0
2017-06-25T01:45:03.338Z,0
2017-06-25T01:45:29.429Z,0
2017-06-25T01:45:55.531Z,0
2017-06-25T01:46:21.637Z,0
2017-06-25T01:46:47.750Z,0
2017-06-25T01:47:13.873Z,0
2017-06-25T01:47:39.980Z,0
2017-06-25T01:48:06.071Z,0
2017-06-25T01:48:32.167Z,0
2017-06-25T01:48:58.273Z,0
2017-06-25T01:49:24.364Z,0
2017-06-25T01:49:50.472Z,0
2017-06-25T01:50:16.559Z,0
2017-06-25T01:50:42.659Z,0
2017-06-25T01:51:08.765Z,0
2017-06-25T01:51:34.854Z,0
2017-06-25T01:52:00.950Z,0
2017-06-25T01:52:27.084Z,0
2017-06-25T01:52:53.176Z,0
2017-06-25T01:53:19.291Z,0
2017-06-25T01:53:45.430Z,0
2017-06-25T01:54:11.527Z,0
2017-06-25T01:54:37.642Z,0
2017-06-25T01:55:03.747Z,0
2017-06-25T01:55:29.842Z,0
2017-06-25T01:55:55.947Z,0
2017-06-25T01:56:22.042Z,0
2017-06-25T01:56:48.132Z,0
2017-06-25T01:57:14.240Z,0
2017-06-25T01:57:40.338Z,0
2017-06-25T01:58:06.426Z,0
2017-06-25T01:58:32.533Z,0
2017-06-25T01:58:58.632Z,0
2017-06-25T01:59:24.724Z,0
2017-06-25T01:59:50.828Z,0
2017-06-25T02:00:16.933Z,0
2017-06-25T02:00:43.066Z,0
2017-06-25T02:01:09.165Z,0
2017-06-25T02:01:35.270Z,0
2017-06-25T02:02:01.360Z,0
2017-06-25T02:02:27.455Z,0
2017-06-25T02:02:53.588Z,0
2017-06-25T02:03:19.683Z,0
2017-06-25T02:03:45.797Z,0
2017-06-25T02:04:11.906Z,0
2017-06-25T02:04:38.032Z,0
2017-06-25T02:05:04.145Z,0
2017-06-25T02:05:30.258Z,0
2017-06-25T02:05:56.413Z,0
2017-06-25T02:06:22.512Z,0
2017-06-25T02:06:48.608Z,0
2017-06-25T02:07:14.720Z,0
2017-06-25T02:07:40.830Z,0
2017-06-25T02:08:06.926Z,0
2017-06-25T02:08:33.014Z,0
2017-06-25T02:08:59.121Z,0
2017-06-25T02:09:25.248Z,0
2017-06-25T02:09:51.362Z,0
2017-06-25T02:10:17.484Z,0
2017-06-25T02:10:43.567Z,0
2017-06-25T02:11:09.677Z,0
2017-06-25T02:11:35.777Z,0
2017-06-25T02:12:01.872Z,0
2017-06-25T02:12:34.270Z,0
2017-06-25T02:13:00.370Z,0
2017-06-25T02:13:26.461Z,0
2017-06-25T02:13:52.565Z,0
2017-06-25T02:14:18.671Z,0
2017-06-25T02:14:44.760Z,0
2017-06-25T02:15:10.862Z,0
2017-06-25T02:15:36.969Z,0
2017-06-25T02:16:03.062Z,0
2017-06-25T02:16:29.154Z,0
2017-06-25T02:16:55.287Z,0
2017-06-25T02:17:21.382Z,0
2017-06-25T02:17:47.513Z,0
2017-06-25T02:18:13.601Z,0
2017-06-25T02:18:39.701Z,0
2017-06-25T02:19:05.805Z,0
2017-06-25T02:19:31.896Z,0
2017-06-25T02:19:57.995Z,0
2017-06-25T02:20:24.101Z,0
2017-06-25T02:20:50.217Z,0
2017-06-25T02:21:16.306Z,0
2017-06-25T02:21:42.415Z,0
2017-06-25T02:22:08.511Z,0
2017-06-25T02:22:34.603Z,0
2017-06-25T02:23:00.735Z,0
2017-06-25T02:23:26.855Z,0
2017-06-25T02:23:52.989Z,0
2017-06-25T02:24:19.081Z,0
2017-06-25T02:24:45.170Z,0
2017-06-25T02:25:11.305Z,0
2017-06-25T02:25:37.451Z,0
2017-06-25T02:26:03.566Z,0
2017-06-25T02:26:29.674Z,0
2017-06-25T02:26:55.774Z,0
2017-06-25T02:27:21.890Z,0
2017-06-25T02:27:47.992Z,0
2017-06-25T02:28:14.096Z,0
2017-06-25T02:28:40.189Z,0
2017-06-25T02:29:06.287Z,0
2017-06-25T02:29:32.401Z,0
2017-06-25T02:29:58.535Z,0
2017-06-25T02:30:24.635Z,0
2017-06-25T02:30:50.777Z,0
2017-06-25T02:31:16.904Z,0
2017-06-25T02:31:43.013Z,0
2017-06-25T02:32:09.128Z,0
2017-06-25T02:32:35.228Z,0
2017-06-25T02:33:01.334Z,0
2017-06-25T02:33:27.449Z,0
2017-06-25T02:33:53.548Z,0
2017-06-25T02:34:19.673Z,0
2017-06-25T02:34:45.775Z,0
2017-06-25T02:35:11.882Z,0
2017-06-25T02:35:37.969Z,0
2017-06-25T02:36:04.084Z,0
2017-06-25T02:36:30.202Z,0
2017-06-25T02:36:56.295Z,0
2017-06-25T02:37:22.416Z,0
2017-06-25T02:37:48.522Z,0
2017-06-25T02:38:14.616Z,0
2017-06-25T02:38:40.728Z,0
2017-06-25T02:39:06.866Z,0
2017-06-25T02:39:32.962Z,0
2017-06-25T02:39:59.092Z,0
2017-06-25T02:40:25.208Z,0
2017-06-25T02:40:51.330Z,0
2017-06-25T02:41:17.487Z,0
2017-06-25T02:41:43.581Z,0
2017-06-25T02:42:09.745Z,0
2017-06-25T02:42:35.854Z,0
2017-06-25T02:43:01.951Z,0
2017-06-25T02:43:28.066Z,0
2017-06-25T02:43:54.200Z,0
2017-06-25T02:44:20.298Z,0
2017-06-25T02:44:46.413Z,0
2017-06-25T02:45:12.517Z,0
2017-06-25T02:45:38.620Z,0
2017-06-25T02:46:04.734Z,0
2017-06-25T02:46:30.835Z,0
2017-06-25T02:46:56.941Z,0
2017-06-25T02:47:23.032Z,0
2017-06-25T02:47:49.128Z,0
2017-06-25T02:48:15.235Z,0
2017-06-25T02:48:41.329Z,0
2017-06-25T02:49:07.419Z,0
2017-06-25T02:49:33.529Z,0
2017-06-25T02:49:59.625Z,0
2017-06-25T02:50:25.715Z,0
2017-06-25T02:50:51.822Z,0
2017-06-25T02:51:17.941Z,0
2017-06-25T02:51:44.048Z,0
2017-06-25T02:52:10.141Z,0
2017-06-25T02:52:36.234Z,0
2017-06-25T02:53:02.344Z,0
2017-06-25T02:53:28.466Z,0
2017-06-25T02:53:54.556Z,0
2017-06-25T02:54:20.662Z,0
2017-06-25T02:54:46.790Z,0
2017-06-25T02:55:12.904Z,0
2017-06-25T02:55:39.006Z,0
2017-06-25T02:56:05.142Z,0
2017-06-25T02:56:31.238Z,0
2017-06-25T02:56:57.335Z,0
2017-06-25T02:57:23.428Z,0
2017-06-25T02:57:49.533Z,0
2017-06-25T02:58:15.632Z,0
2017-06-25T02:58:41.772Z,0
2017-06-25T02:59:07.874Z,0
2017-06-25T02:59:33.982Z,0
2017-06-25T03:00:00.068Z,0
2017-06-25T03:00:26.168Z,0
2017-06-25T03:00:52.273Z,0
2017-06-25T03:01:18.365Z,0
2017-06-25T03:01:44.461Z,0
2017-06-25T03:02:10.558Z,0
2017-06-25T03:02:36.662Z,0
2017-06-25T03:03:02.768Z,0
2017-06-25T03:03:28.879Z,0
2017-06-25T03:03:54.978Z,0
2017-06-25T03:04:21.084Z,0
2017-06-25T03:04:47.172Z,0
2017-06-25T03:05:13.267Z,0
2017-06-25T03:05:39.375Z,0
2017-06-25T03:06:05.545Z,0
2017-06-25T03:06:31.659Z,0
2017-06-25T03:06:57.769Z,0
2017-06-25T03:07:23.867Z,0
2017-06-25T03:07:49.970Z,0
2017-06-25T03:08:16.058Z,0
2017-06-25T03:08:42.155Z,0
2017-06-25T03:09:08.288Z,0
2017-06-25T03:09:34.382Z,0
2017-06-25T03:10:00.472Z,0
2017-06-25T03:10:26.581Z,0
2017-06-25T03:10:52.699Z,0
2017-06-25T03:11:18.786Z,0
2017-06-25T03:11:44.892Z,0
2017-06-25T03:12:10.990Z,0
2017-06-25T03:12:37.081Z,0
2017-06-25T03:13:03.189Z,0
2017-06-25T03:13:29.307Z,0
2017-06-25T03:13:55.415Z,0
2017-06-25T03:14:21.511Z,0
2017-06-25T03:14:47.626Z,0
2017-06-25T03:15:13.734Z,0
2017-06-25T03:15:39.831Z,0
2017-06-25T03:16:05.920Z,0
2017-06-25T03:16:32.022Z,0
2017-06-25T03:16:58.129Z,0
2017-06-25T03:17:24.217Z,0
2017-06-25T03:17:50.340Z,0
2017-06-25T03:18:16.448Z,0
2017-06-25T03:18:42.537Z,0
2017-06-25T03:19:08.666Z,0
2017-06-25T03:19:34.778Z,0
2017-06-25T03:20:00.903Z,0
2017-06-25T03:20:27.009Z,0
2017-06-25T03:20:53.098Z,0
2017-06-25T03:21:19.199Z,5
2017-06-25T03:21:45.306Z,5
2017-06-25T03:22:11.395Z,5
2017-06-25T03:22:37.492Z,5
2017-06-25T03:23:03.626Z,5
2017-06-25T03:23:29.749Z,5
2017-06-25T03:23:55.863Z,5
2017-06-25T03:24:21.992Z,5
2017-06-25T03:24:48.099Z,5
2017-06-25T03:25:14.223Z,5
2017-06-25T03:25:40.334Z,5
2017-06-25T03:26:06.431Z,5
2017-06-25T03:26:32.564Z,5
2017-06-25T03:26:58.681Z,5
2017-06-25T03:27:24.770Z,5
2017-06-25T03:27:50.933Z,5
2017-06-25T03:28:17.057Z,5
2017-06-25T03:28:43.148Z,5
2017-06-25T03:29:09.282Z,5
2017-06-25T03:29:35.408Z,5
2017-06-25T03:30:01.523Z,5
2017-06-25T03:30:27.625Z,5
2017-06-25T03:30:53.756Z,5
2017-06-25T03:31:19.868Z,5
2017-06-25T03:31:45.966Z,5
2017-06-25T03:32:12.102Z,5
2017-06-25T03:32:38.220Z,5
2017-06-25T03:33:04.316Z,5
2017-06-25T03:33:30.424Z,5
2017-06-25T03:33:56.516Z,5
2017-06-25T03:34:22.606Z,5
2017-06-25T03:34:48.715Z,5
2017-06-25T03:35:14.813Z,5
2017-06-25T03:35:40.914Z,5
2017-06-25T03:36:07.003Z,5
2017-06-25T03:36:33.097Z,10
2017-06-25T03:36:59.203Z,5
2017-06-25T03:37:25.298Z,5
2017-06-25T03:37:51.413Z,5
2017-06-25T03:38:17.577Z,5
2017-06-25T03:38:43.674Z,10
2017-06-25T03:39:09.767Z,10
2017-06-25T03:39:35.901Z,10
2017-06-25T03:40:02.001Z,5
2017-06-25T03:40:28.117Z,10
2017-06-25T03:40:54.219Z,10
2017-06-25T03:41:20.310Z,5
2017-06-25T03:41:46.419Z,5
2017-06-25T03:42:12.514Z,5
2017-06-25T03:42:38.604Z,5
2017-06-25T03:43:04.710Z,5
2017-06-25T03:43:30.842Z,5
2017-06-25T03:43:56.926Z,5
2017-06-25T03:44:23.030Z,5
2017-06-25T03:44:49.134Z,5
2017-06-25T03:45:15.224Z,10
2017-06-25T03:45:41.349Z,10
2017-06-25T03:46:07.456Z,10
2017-06-25T03:46:33.543Z,10
2017-06-25T03:46:59.647Z,10
2017-06-25T03:47:25.735Z,10
2017-06-25T03:47:51.837Z,10
2017-06-25T03:48:17.971Z,5
2017-06-25T03:48:44.057Z,5
2017-06-25T03:49:10.156Z,5
2017-06-25T03:49:36.289Z,5
2017-06-25T03:50:02.381Z,10
2017-06-25T03:50:28.477Z,10
2017-06-25T03:50:54.610Z,5
2017-06-25T03:51:20.734Z,5
2017-06-25T03:51:46.849Z,5
2017-06-25T03:52:12.952Z,10
2017-06-25T03:52:39.080Z,10
2017-06-25T03:53:05.214Z,10
2017-06-25T03:53:31.333Z,5
2017-06-25T03:53:57.452Z,5
2017-06-25T03:54:23.556Z,5
2017-06-25T03:54:49.680Z,5
2017-06-25T03:55:15.768Z,10
2017-06-25T03:55:41.877Z,10
2017-06-25T03:56:08.002Z,10
2017-06-25T03:56:34.093Z,10
2017-06-25T03:57:00.223Z,10
2017-06-25T03:57:26.351Z,10
2017-06-25T03:57:52.450Z,10
2017-06-25T03:58:18.546Z,5
2017-06-25T03:58:44.636Z,5
2017-06-25T03:59:10.746Z,10
2017-06-25T03:59:36.869Z,10
2017-06-25T04:00:02.984Z,10
2017-06-25T04:00:29.087Z,10
2017-06-25T04:00:55.188Z,10
2017-06-25T04:01:21.276Z,10
2017-06-25T04:01:47.407Z,10
2017-06-25T04:02:13.541Z,15
2017-06-25T04:02:39.627Z,15
2017-06-25T04:03:05.750Z,15
2017-06-25T04:03:31.845Z,15
2017-06-25T04:03:57.973Z,15
2017-06-25T04:04:24.070Z,15
2017-06-25T04:04:50.160Z,15
2017-06-25T04:05:16.259Z,15
2017-06-25T04:05:42.394Z,15
2017-06-25T04:06:08.479Z,20
2017-06-25T04:06:34.606Z,20
2017-06-25T04:07:00.711Z,20
2017-06-25T04:07:26.802Z,20
2017-06-25T04:07:52.897Z,20
2017-06-25T04:08:19.004Z,15
2017-06-25T04:08:45.097Z,15
2017-06-25T04:09:11.201Z,15
2017-06-25T04:09:37.312Z,15
2017-06-25T04:10:03.411Z,15
2017-06-25T04:10:29.542Z,15
2017-06-25T04:10:55.628Z,15
2017-06-25T04:11:21.724Z,10
2017-06-25T04:11:47.859Z,10
2017-06-25T04:12:13.952Z,10
2017-06-25T04:12:40.042Z,10
2017-06-25T04:13:06.153Z,10
2017-06-25T04:13:32.248Z,10
2017-06-25T04:13:58.335Z,15
2017-06-25T04:14:24.443Z,15
2017-06-25T04:14:50.544Z,15
2017-06-25T04:15:16.636Z,15
2017-06-25T04:15:42.737Z,10
2017-06-25T04:16:08.844Z,10
2017-06-25T04:16:34.955Z,10
2017-06-25T04:17:01.056Z,10
2017-06-25T04:17:27.190Z,10
2017-06-25T04:17:53.304Z,10
2017-06-25T04:18:19.401Z,10
2017-06-25T04:18:45.533Z,10
2017-06-25T04:19:11.654Z,10
2017-06-25T04:19:37.740Z,10
2017-06-25T04:20:03.842Z,10
2017-06-25T04:20:29.940Z,10
2017-06-25T04:20:56.048Z,10
2017-06-25T04:21:22.137Z,10
2017-06-25T04:21:48.260Z,10
2017-06-25T04:22:14.366Z,15
2017-06-25T04:22:40.459Z,15
2017-06-25T04:23:06.549Z,15
2017-06-25T04:23:32.741Z,15
2017-06-25T04:23:58.839Z,15
2017-06-25T04:24:24.978Z,20
2017-06-25T04:24:51.083Z,15
2017-06-25T04:25:17.182Z,20
2017-06-25T04:25:43.282Z,15
2017-06-25T04:26:09.403Z,20
2017-06-25T04:26:35.490Z,20
2017-06-25T04:27:01.599Z,20
2017-06-25T04:27:27.698Z,20
2017-06-25T04:27:53.787Z,20
2017-06-25T04:28:19.946Z,20
2017-06-25T04:28:46.069Z,20
2017-06-25T04:29:12.158Z,20
2017-06-25T04:29:38.262Z,20
2017-06-25T04:30:04.425Z,20
2017-06-25T04:30:30.510Z,20
2017-06-25T04:30:56.607Z,20
2017-06-25T04:31:22.702Z,20
2017-06-25T04:31:48.809Z,20
2017-06-25T04:32:14.932Z,20
2017-06-25T04:32:41.023Z,25
2017-06-25T04:33:07.126Z,25
2017-06-25T04:33:33.232Z,25
2017-06-25T04:33:59.321Z,20
2017-06-25T04:34:25.422Z,20
2017-06-25T04:34:51.555Z,20
2017-06-25T04:35:17.645Z,20
2017-06-25T04:35:43.739Z,20
2017-06-25T04:36:09.874Z,20
2017-06-25T04:36:35.969Z,20
2017-06-25T04:37:02.074Z,20
2017-06-25T04:37:28.162Z,15
2017-06-25T04:37:54.289Z,20
2017-06-25T04:38:20.424Z,20
2017-06-25T04:38:46.542Z,20
2017-06-25T04:39:12.638Z,20
2017-06-25T04:39:38.746Z,20
2017-06-25T04:40:04.870Z,20
2017-06-25T04:40:30.959Z,20
2017-06-25T04:40:57.095Z,20
2017-06-25T04:41:23.192Z,20
2017-06-25T04:41:49.307Z,25
2017-06-25T04:42:15.413Z,25
2017-06-25T04:42:41.528Z,20
2017-06-25T04:43:07.634Z,20
2017-06-25T04:43:33.753Z,25
2017-06-25T04:43:59.842Z,25
2017-06-25T04:44:25.951Z,25
2017-06-25T04:44:52.372Z,25
2017-06-25T04:45:18.463Z,25
2017-06-25T04:45:44.596Z,25
2017-06-25T04:46:10.721Z,30
2017-06-25T04:46:36.809Z,30
2017-06-25T04:47:02.937Z,30
2017-06-25T04:47:29.044Z,30
2017-06-25T04:47:55.139Z,30
2017-06-25T04:48:21.236Z,35
2017-06-25T04:48:47.327Z,35
2017-06-25T04:49:13.433Z,35
2017-06-25T04:49:39.533Z,35
2017-06-25T04:50:05.625Z,35
2017-06-25T04:50:31.727Z,35
2017-06-25T04:50:57.833Z,35
2017-06-25T04:51:23.920Z,35
2017-06-25T04:51:50.019Z,40
2017-06-25T04:52:16.152Z,40
2017-06-25T04:52:42.243Z,30
2017-06-25T04:53:08.343Z,30
2017-06-25T04:53:34.436Z,35
2017-06-25T04:54:00.540Z,35
2017-06-25T04:54:26.675Z,35
2017-06-25T04:54:52.786Z,35
2017-06-25T04:55:18.891Z,35
2017-06-25T04:55:44.992Z,35
2017-06-25T04:56:11.080Z,35
2017-06-25T04:56:37.178Z,35
2017-06-25T04:57:03.284Z,35
2017-06-25T04:57:29.378Z,35
2017-06-25T04:57:55.468Z,35
2017-06-25T04:58:21.603Z,40
2017-06-25T04:58:47.701Z,45
2017-06-25T04:59:13.793Z,45
2017-06-25T04:59:39.900Z,45
2017-06-25T05:00:06.026Z,40
2017-06-25T05:00:32.141Z,45
2017-06-25T05:00:58.245Z,60
2017-06-25T05:01:24.379Z,60
2017-06-25T05:01:50.466Z,60
2017-06-25T05:02:16.564Z,70
2017-06-25T05:02:42.699Z,75
2017-06-25T05:03:08.791Z,75
2017-06-25T05:03:34.935Z,75
2017-06-25T05:04:01.040Z,70
2017-06-25T05:04:27.133Z,65
2017-06-25T05:04:53.240Z,70
2017-06-25T05:05:19.326Z,70
2017-06-25T05:05:45.424Z,75
2017-06-25T05:06:11.557Z,80
2017-06-25T05:06:37.645Z,80
2017-06-25T05:07:03.740Z,80
2017-06-25T05:07:29.847Z,75
2017-06-25T05:07:55.964Z,70
2017-06-25T05:08:22.058Z,75
2017-06-25T05:08:48.168Z,80
2017-06-25T05:09:14.265Z,80
2017-06-25T05:09:40.407Z,75
2017-06-25T05:10:06.665Z,70
2017-06-25T05:10:32.758Z,70
2017-06-25T05:10:58.865Z,70
2017-06-25T05:11:24.984Z,80
2017-06-25T05:11:51.073Z,85
2017-06-25T05:12:17.182Z,80
2017-06-25T05:12:43.279Z,70
2017-06-25T05:13:09.369Z,75
2017-06-25T05:13:35.477Z,70
2017-06-25T05:14:01.577Z,70
2017-06-25T05:14:27.667Z,70
2017-06-25T05:14:53.793Z,80
2017-06-25T05:15:20.306Z,70
2017-06-25T05:15:46.399Z,60
2017-06-25T05:16:12.495Z,55
2017-06-25T05:16:38.635Z,45
2017-06-25T05:17:04.741Z,45
2017-06-25T05:17:30.868Z,35
2017-06-25T05:17:56.961Z,30
2017-06-25T05:18:23.092Z,30
2017-06-25T05:18:49.198Z,25
2017-06-25T05:19:15.288Z,30
2017-06-25T05:19:41.442Z,25
2017-06-25T05:20:07.574Z,30
2017-06-25T05:20:33.694Z,35
2017-06-25T05:20:59.790Z,35
2017-06-25T05:21:25.916Z,35
2017-06-25T05:21:52.044Z,35
2017-06-25T05:22:18.150Z,45
2017-06-25T05:22:44.238Z,50
2017-06-25T05:23:10.362Z,55
2017-06-25T05:23:36.497Z,60
2017-06-25T05:24:02.586Z,60
2017-06-25T05:24:28.684Z,60
2017-06-25T05:24:54.788Z,60
2017-06-25T05:25:20.909Z,65
2017-06-25T05:25:46.999Z,65
2017-06-25T05:26:13.163Z,75
2017-06-25T05:26:39.289Z,85
2017-06-25T05:27:05.392Z,80
2017-06-25T05:27:31.482Z,75
2017-06-25T05:27:57.578Z,75
2017-06-25T05:28:23.710Z,80
2017-06-25T05:28:49.804Z,60
2017-06-25T05:29:15.919Z,50
2017-06-25T05:29:42.029Z,45
2017-06-25T05:30:08.125Z,45
2017-06-25T05:30:34.215Z,50
2017-06-25T05:31:00.322Z,55
2017-06-25T05:31:26.477Z,60
2017-06-25T05:31:52.567Z,50
2017-06-25T05:32:18.671Z,45
2017-06-25T05:32:44.764Z,50
2017-06-25T05:33:10.874Z,50
2017-06-25T05:33:36.970Z,55
2017-06-25T05:34:03.091Z,55
2017-06-25T05:34:29.197Z,50
2017-06-25T05:34:55.299Z,45
2017-06-25T05:35:21.412Z,45
2017-06-25T05:35:47.519Z,45
2017-06-25T05:36:13.625Z,45
2017-06-25T05:36:39.714Z,40
2017-06-25T05:37:05.889Z,40
2017-06-25T05:37:31.992Z,40
2017-06-25T05:37:58.109Z,45
2017-06-25T05:38:24.211Z,45
2017-06-25T05:38:50.300Z,45
2017-06-25T05:39:16.403Z,50
2017-06-25T05:39:42.539Z,50
2017-06-25T05:40:08.650Z,45
2017-06-25T05:40:34.751Z,45
2017-06-25T05:41:00.856Z,45
2017-06-25T05:41:26.975Z,50
2017-06-25T05:41:53.074Z,50
2017-06-25T05:42:19.180Z,50
2017-06-25T05:42:45.273Z,50
2017-06-25T05:43:11.388Z,55
2017-06-25T05:43:37.496Z,60
2017-06-25T05:44:03.595Z,65
2017-06-25T05:44:29.688Z,70
2017-06-25T05:44:55.794Z,70
2017-06-25T05:45:21.893Z,80
2017-06-25T05:45:48.335Z,80
2017-06-25T05:46:14.495Z,70
2017-06-25T05:46:40.602Z,70
2017-06-25T05:47:06.694Z,70
2017-06-25T05:47:32.792Z,75
2017-06-25T05:47:58.898Z,80
2017-06-25T05:48:25.017Z,80
2017-06-25T05:48:51.116Z,90
2017-06-25T05:49:17.213Z,85
2017-06-25T05:49:43.316Z,95
2017-06-25T05:50:09.450Z,110
2017-06-25T05:50:35.538Z,130
2017-06-25T05:51:01.637Z,145
2017-06-25T05:51:27.743Z,160
2017-06-25T05:51:53.833Z,160
2017-06-25T05:52:19.930Z,150
2017-06-25T05:52:46.063Z,140
2017-06-25T05:53:12.159Z,135
2017-06-25T05:53:38.250Z,150
2017-06-25T05:54:04.389Z,155
2017-06-25T05:54:30.485Z,140
2017-06-25T05:54:56.589Z,145
2017-06-25T05:55:22.704Z,155
2017-06-25T05:55:48.802Z,150
2017-06-25T05:56:14.908Z,150
2017-06-25T05:56:41.004Z,170
2017-06-25T05:57:07.095Z,160
2017-06-25T05:57:33.204Z,140
2017-06-25T05:57:59.302Z,130
2017-06-25T05:58:25.392Z,130
2017-06-25T05:58:51.498Z,135
2017-06-25T05:59:17.598Z,140
2017-06-25T05:59:43.690Z,135
2017-06-25T06:00:09.793Z,125
2017-06-25T06:00:35.884Z,135
2017-06-25T06:01:01.994Z,150
2017-06-25T06:01:28.093Z,160
2017-06-25T06:01:54.183Z,165
2017-06-25T06:02:20.290Z,170
2017-06-25T06:02:46.447Z,170
2017-06-25T06:03:12.538Z,170
2017-06-25T06:03:38.668Z,155
2017-06-25T06:04:04.774Z,135
2017-06-25T06:04:30.861Z,145
2017-06-25T06:04:56.963Z,160
2017-06-25T06:05:23.072Z,150
2017-06-25T06:05:49.186Z,140
2017-06-25T06:06:15.291Z,120
2017-06-25T06:06:41.382Z,120
2017-06-25T06:07:07.511Z,125
2017-06-25T06:07:33.617Z,115
2017-06-25T06:07:59.706Z,105
2017-06-25T06:08:25.807Z,95
2017-06-25T06:08:51.941Z,100
2017-06-25T06:09:18.029Z,100
2017-06-25T06:09:44.151Z,85
2017-06-25T06:10:10.282Z,85
2017-06-25T06:10:36.380Z,80
2017-06-25T06:11:02.517Z,80
2017-06-25T06:11:28.623Z,80
2017-06-25T06:11:54.723Z,90
2017-06-25T06:12:20.831Z,90
2017-06-25T06:12:46.921Z,95
2017-06-25T06:13:13.066Z,95
2017-06-25T06:13:39.172Z,105
2017-06-25T06:14:05.269Z,115
2017-06-25T06:14:31.359Z,120
2017-06-25T06:14:57.470Z,115
2017-06-25T06:15:23.567Z,110
2017-06-25T06:15:49.684Z,120
2017-06-25T06:16:15.814Z,140
2017-06-25T06:16:41.940Z,125
2017-06-25T06:17:08.063Z,130
2017-06-25T06:17:34.157Z,170
2017-06-25T06:18:00.249Z,200
2017-06-25T06:18:26.384Z,200
2017-06-25T06:18:52.482Z,210
2017-06-25T06:19:18.600Z,240
2017-06-25T06:19:44.707Z,240